Time;durP1;ratioP1;P1;durP2;ratioP2;P2;SDS_P1;SDS_P2;PMS_P1;PMS_P2;Temp;Humidity;BMP_temperature;BMP_pressure;BME280_temperature;BME280_humidity;BME280_pressure;Samples;Min_cycle;Max_cycle;Signal;HPM_P1;HPM_P2
2022/07/15 00:01:12;;;;;;;1.88;1.00;;;27.90;60.20;;;;;;5049732;28;20025;-81
2022/07/15 00:03:38;;;;;;;1.67;1.10;;;27.90;60.30;;;;;;5047295;28;20037;-82
2022/07/15 00:06:04;;;;;;;7.05;1.10;;;27.90;60.40;;;;;;5040890;28;20028;-82
2022/07/15 00:08:29;;;;;;;0.98;0.88;;;27.90;60.40;;;;;;5051210;28;20029;-82
2022/07/15 00:10:55;;;;;;;1.42;0.95;;;27.90;60.50;;;;;;5044950;28;20469;-82
2022/07/15 00:13:23;;;;;;;1.50;0.80;;;27.90;60.40;;;;;;5049874;28;20029;-81
2022/07/15 00:15:49;;;;;;;1.38;1.13;;;27.90;60.30;;;;;;5049461;28;20096;-82
2022/07/15 00:18:15;;;;;;;2.25;1.05;;;27.90;60.40;;;;;;5025873;28;20128;-81
2022/07/15 00:20:40;;;;;;;1.83;0.90;;;27.90;60.40;;;;;;5038091;28;20083;-81
2022/07/15 00:23:06;;;;;;;2.47;1.10;;;27.90;60.40;;;;;;5039756;28;20428;-80
2022/07/15 00:25:32;;;;;;;1.13;0.90;;;27.90;60.30;;;;;;5046062;28;20541;-81
2022/07/15 00:28:00;;;;;;;1.98;1.20;;;27.90;60.50;;;;;;5048055;28;20103;-82
2022/07/15 00:30:31;;;;;;;3.67;1.23;;;27.90;60.40;;;;;;5041234;28;20481;-83
2022/07/15 00:32:57;;;;;;;2.45;1.70;;;27.80;60.20;;;;;;5040799;28;20028;-83
2022/07/15 00:35:23;;;;;;;2.20;1.70;;;27.80;60.20;;;;;;5041250;28;20102;-83
2022/07/15 00:37:49;;;;;;;4.80;1.75;;;27.80;60.20;;;;;;5051165;28;20025;-82
2022/07/15 00:40:15;;;;;;;3.45;1.30;;;27.80;60.20;;;;;;5046041;28;20041;-83
2022/07/15 00:42:44;;;;;;;1.92;1.15;;;27.70;60.20;;;;;;5044060;28;20063;-84
2022/07/15 00:45:14;;;;;;;2.00;1.50;;;27.70;60.40;;;;;;5043291;28;20099;-84
2022/07/15 00:47:46;;;;;;;2.15;1.40;;;27.70;60.60;;;;;;5046597;28;20135;-84
2022/07/15 00:50:12;;;;;;;2.33;1.33;;;27.70;60.70;;;;;;5045826;28;20095;-83
2022/07/15 00:52:43;;;;;;;1.63;1.10;;;27.70;60.90;;;;;;5043848;28;20033;-83
2022/07/15 00:55:11;;;;;;;1.95;1.20;;;27.70;60.90;;;;;;5050788;28;20040;-83
2022/07/15 00:57:39;;;;;;;2.58;1.27;;;27.70;61.30;;;;;;5043336;28;20112;-87
2022/07/15 01:00:08;;;;;;;1.67;1.20;;;27.70;61.20;;;;;;5043879;28;20043;-81
2022/07/15 01:02:35;;;;;;;2.80;1.30;;;27.60;61.00;;;;;;5043496;28;20063;-82
2022/07/15 01:05:04;;;;;;;1.02;0.80;;;27.60;60.80;;;;;;5049928;28;20033;-81
2022/07/15 01:07:30;;;;;;;1.70;1.40;;;27.60;60.70;;;;;;5045650;28;20040;-83
2022/07/15 01:09:55;;;;;;;1.80;0.90;;;27.60;60.80;;;;;;5054367;28;20037;-81
2022/07/15 01:12:22;;;;;;;1.70;1.15;;;27.60;60.80;;;;;;5044168;28;20029;-81
2022/07/15 01:14:48;;;;;;;2.25;1.23;;;27.60;60.90;;;;;;5048030;28;20067;-83
2022/07/15 01:17:15;;;;;;;2.17;1.27;;;27.60;60.90;;;;;;5045802;28;20458;-82
2022/07/15 01:19:41;;;;;;;1.50;1.13;;;27.60;61.10;;;;;;5051782;28;20024;-82
2022/07/15 01:22:07;;;;;;;1.23;1.10;;;27.60;61.20;;;;;;5045475;28;20029;-82
2022/07/15 01:24:33;;;;;;;1.52;1.40;;;27.50;61.50;;;;;;5052169;28;20106;-82
2022/07/15 01:27:00;;;;;;;2.28;1.02;;;27.50;61.60;;;;;;5053771;28;20041;-82
2022/07/15 01:29:27;;;;;;;1.65;1.23;;;27.50;61.60;;;;;;5052152;28;20032;-80
2022/07/15 01:31:53;;;;;;;1.58;1.30;;;27.50;61.60;;;;;;5053590;28;20098;-81
2022/07/15 01:34:19;;;;;;;1.80;1.45;;;27.50;61.60;;;;;;5051077;28;20060;-82
2022/07/15 01:36:45;;;;;;;2.65;1.42;;;27.50;61.90;;;;;;5052270;28;20040;-82
2022/07/15 01:39:10;;;;;;;1.98;1.00;;;27.50;61.90;;;;;;5052207;28;20025;-82
2022/07/15 01:41:36;;;;;;;1.95;1.20;;;27.40;61.70;;;;;;5052734;28;20067;-83
2022/07/15 01:44:02;;;;;;;2.88;1.23;;;27.40;62.00;;;;;;5028762;28;20037;-82
2022/07/15 01:46:28;;;;;;;1.08;0.98;;;27.40;62.00;;;;;;5043823;28;20033;-83
2022/07/15 01:51:38;;;;;;;1.60;1.10;;;27.40;62.20;;;;;;5042841;28;20043;-83
2022/07/15 01:54:03;;;;;;;1.48;1.00;;;27.30;62.20;;;;;;5049671;28;20105;-81
2022/07/15 01:56:29;;;;;;;1.52;1.00;;;27.30;62.30;;;;;;5045602;28;20123;-81
2022/07/15 01:58:55;;;;;;;1.27;1.17;;;27.30;62.40;;;;;;5047126;28;20049;-82
2022/07/15 02:01:20;;;;;;;1.70;0.80;;;27.30;62.40;;;;;;5043026;28;20034;-81
2022/07/15 02:03:46;;;;;;;1.20;0.73;;;27.30;62.40;;;;;;5045745;28;20112;-82
2022/07/15 02:06:12;;;;;;;2.30;0.85;;;27.30;62.40;;;;;;5026736;28;20457;-82
2022/07/15 02:08:37;;;;;;;1.33;0.93;;;27.30;62.30;;;;;;5049136;28;20508;-82
2022/07/15 02:11:03;;;;;;;1.83;0.88;;;27.30;62.40;;;;;;5042598;28;20037;-81
2022/07/15 02:13:29;;;;;;;1.35;0.90;;;27.30;62.60;;;;;;5038462;28;20481;-83
2022/07/15 02:15:55;;;;;;;1.33;1.20;;;27.30;62.80;;;;;;5045728;28;20025;-83
2022/07/15 02:18:21;;;;;;;2.08;0.82;;;27.30;63.00;;;;;;5044365;28;20100;-83
2022/07/15 02:20:46;;;;;;;3.10;1.20;;;27.30;63.20;;;;;;5022751;28;20053;-81
2022/07/15 02:23:12;;;;;;;1.20;1.10;;;27.30;63.60;;;;;;5035997;28;20424;-82
2022/07/15 02:25:38;;;;;;;1.55;1.08;;;27.20;64.00;;;;;;5045886;28;20536;-82
2022/07/15 02:28:05;;;;;;;1.65;1.10;;;27.20;64.60;;;;;;5043893;28;20033;-80
2022/07/15 02:30:37;;;;;;;0.95;0.80;;;27.20;65.00;;;;;;5042264;28;20036;-81
2022/07/15 02:33:04;;;;;;;1.33;1.20;;;27.20;65.70;;;;;;5037147;28;20029;-83
2022/07/15 02:35:31;;;;;;;1.17;1.00;;;27.20;66.30;;;;;;5038444;28;20039;-83
2022/07/15 02:37:56;;;;;;;1.00;0.90;;;27.20;67.00;;;;;;5045744;28;20021;-81
2022/07/15 02:40:23;;;;;;;2.03;1.20;;;27.20;67.80;;;;;;5026363;28;20041;-81
2022/07/15 02:42:50;;;;;;;2.10;1.42;;;27.20;68.30;;;;;;5042527;28;20495;-82
2022/07/15 02:45:18;;;;;;;1.98;1.10;;;27.20;68.80;;;;;;5042466;28;20436;-82
2022/07/15 02:47:43;;;;;;;3.08;1.20;;;27.20;69.40;;;;;;5045197;28;20025;-81
2022/07/15 02:50:09;;;;;;;2.60;1.08;;;27.20;69.90;;;;;;5042806;28;20040;-81
2022/07/15 02:52:35;;;;;;;1.33;1.00;;;27.20;70.30;;;;;;5037679;28;20033;-81
2022/07/15 02:55:01;;;;;;;2.08;1.00;;;27.20;70.70;;;;;;5041765;28;20053;-82
2022/07/15 02:57:28;;;;;;;1.23;1.02;;;27.20;71.00;;;;;;5044699;28;20049;-80
2022/07/15 02:59:53;;;;;;;2.80;1.23;;;27.10;71.10;;;;;;5027994;28;20025;-80
2022/07/15 03:02:19;;;;;;;1.40;1.10;;;27.20;71.50;;;;;;5038281;28;20025;-80
2022/07/15 03:04:45;;;;;;;2.97;1.40;;;27.20;71.80;;;;;;5044072;28;20124;-81
2022/07/15 03:07:11;;;;;;;1.45;1.02;;;27.20;72.10;;;;;;5041933;28;20124;-81
2022/07/15 03:09:37;;;;;;;1.27;0.90;;;27.10;72.40;;;;;;5045262;28;20512;-81
2022/07/15 03:12:03;;;;;;;2.28;1.10;;;27.10;72.70;;;;;;5049748;28;20021;-80
2022/07/15 03:14:29;;;;;;;2.30;1.10;;;27.10;73.10;;;;;;5044361;28;20033;-81
2022/07/15 03:16:55;;;;;;;1.33;1.15;;;27.10;73.20;;;;;;5028464;28;20041;-81
2022/07/15 03:19:21;;;;;;;2.35;1.23;;;27.10;73.40;;;;;;5048738;28;20483;-81
2022/07/15 03:21:50;;;;;;;3.13;1.30;;;27.10;73.70;;;;;;5043430;28;20103;-81
2022/07/15 03:24:16;;;;;;;1.40;0.98;;;27.10;73.90;;;;;;5041682;28;20059;-81
2022/07/15 03:26:42;;;;;;;2.05;1.13;;;27.10;74.10;;;;;;5047442;28;20474;-81
2022/07/15 03:29:09;;;;;;;1.67;1.40;;;27.10;74.20;;;;;;5041512;28;20048;-81
2022/07/15 03:31:35;;;;;;;4.25;1.20;;;27.00;74.50;;;;;;5051449;28;20043;-81
2022/07/15 03:34:01;;;;;;;2.38;1.33;;;27.00;74.50;;;;;;5041299;28;20041;-80
2022/07/15 03:36:27;;;;;;;2.28;1.38;;;27.00;74.80;;;;;;5042579;28;20032;-80
2022/07/15 03:38:52;;;;;;;4.22;1.38;;;26.90;74.60;;;;;;5041986;28;20021;-79
2022/07/15 03:41:18;;;;;;;2.10;1.20;;;26.90;74.50;;;;;;5048495;28;20025;-78
2022/07/15 03:43:44;;;;;;;3.50;1.45;;;26.90;74.50;;;;;;5041566;28;20032;-78
2022/07/15 03:46:10;;;;;;;3.30;1.30;;;26.90;74.30;;;;;;5044229;28;20032;-79
2022/07/15 03:48:36;;;;;;;2.67;1.40;;;26.80;74.10;;;;;;5047621;28;20480;-80
2022/07/15 03:51:02;;;;;;;3.13;1.30;;;26.80;73.90;;;;;;5040815;28;20044;-80
2022/07/15 03:57:13;;;;;;;2.55;1.77;;;26.70;73.50;;;;;;5050837;28;20027;-80
2022/07/15 03:59:39;;;;;;;3.23;1.77;;;26.60;71.80;;;;;;5016788;28;20462;-81
2022/07/15 04:02:05;;;;;;;2.40;1.70;;;26.40;72.00;;;;;;5042427;28;20029;-80
2022/07/15 04:04:30;;;;;;;3.08;1.67;;;26.30;72.10;;;;;;5040689;28;20454;-81
2022/07/15 04:06:56;;;;;;;4.15;1.80;;;26.30;71.90;;;;;;5045413;28;20469;-80
2022/07/15 04:09:22;;;;;;;3.05;1.75;;;26.30;71.90;;;;;;5041378;28;20373;-80
2022/07/15 04:11:47;;;;;;;3.03;1.48;;;26.30;71.80;;;;;;5040852;28;20021;-78
2022/07/15 04:14:14;;;;;;;2.75;1.77;;;26.30;71.40;;;;;;5016677;28;20117;-79
2022/07/15 04:16:41;;;;;;;2.38;1.63;;;26.30;71.10;;;;;;5033106;28;20477;-79
2022/07/15 04:19:06;;;;;;;2.83;1.90;;;26.30;70.90;;;;;;5039024;28;20075;-80
2022/07/15 04:21:32;;;;;;;2.88;2.25;;;26.20;70.60;;;;;;5042368;28;20026;-81
2022/07/15 04:23:59;;;;;;;4.50;1.88;;;26.20;70.60;;;;;;5024649;28;20147;-81
2022/07/15 04:26:24;;;;;;;2.20;1.75;;;26.20;70.60;;;;;;5039604;28;20538;-80
2022/07/15 04:28:50;;;;;;;3.53;1.65;;;26.20;70.70;;;;;;5040629;28;20048;-80
2022/07/15 04:31:16;;;;;;;3.05;2.03;;;26.10;70.60;;;;;;5042825;28;20111;-81
2022/07/15 04:33:42;;;;;;;3.67;1.77;;;26.20;70.70;;;;;;5046463;28;20619;-81
2022/07/15 04:36:07;;;;;;;3.05;1.95;;;26.20;70.70;;;;;;5037625;28;20033;-80
2022/07/15 04:38:33;;;;;;;4.80;2.45;;;26.10;70.80;;;;;;5039800;28;20519;-81
2022/07/15 04:40:59;;;;;;;7.30;2.58;;;26.20;70.80;;;;;;5020286;28;20036;-82
2022/07/15 04:43:24;;;;;;;4.32;1.98;;;26.20;70.90;;;;;;5029009;28;20033;-83
2022/07/15 04:45:50;;;;;;;3.25;1.98;;;26.20;70.90;;;;;;5027449;28;20021;-81
2022/07/15 04:51:00;;;;;;;2.28;1.48;;;26.20;70.90;;;;;;5018155;28;20053;-81
2022/07/15 04:53:26;;;;;;;2.00;1.60;;;26.20;70.90;;;;;;5020509;28;20034;-82
2022/07/15 04:55:52;;;;;;;2.33;1.52;;;26.20;71.00;;;;;;5021907;28;20109;-81
2022/07/15 04:58:17;;;;;;;2.83;1.50;;;26.20;71.60;;;;;;5022778;28;20026;-83
2022/07/15 05:00:44;;;;;;;5.10;2.45;;;26.20;71.00;;;;;;5024741;28;20033;-82
2022/07/15 05:03:10;;;;;;;2.92;1.80;;;26.30;71.20;;;;;;5028266;28;20488;-85
2022/07/15 05:05:41;;;;;;;3.03;1.70;;;26.30;71.00;;;;;;5026443;28;20446;-83
2022/07/15 05:08:08;;;;;;;3.90;2.03;;;26.30;71.20;;;;;;5020912;28;20552;-82
2022/07/15 05:10:34;;;;;;;1.80;1.70;;;26.30;71.20;;;;;;5026363;28;20034;-82
2022/07/15 05:13:04;;;;;;;4.03;1.77;;;26.30;71.20;;;;;;5021298;28;20022;-83
2022/07/15 05:15:30;;;;;;;2.13;1.60;;;26.30;71.20;;;;;;5021754;28;20034;-84
2022/07/15 05:17:56;;;;;;;2.55;1.50;;;26.30;71.20;;;;;;5024927;28;20025;-83
2022/07/15 05:20:22;;;;;;;3.15;2.13;;;26.30;71.00;;;;;;5017559;28;20287;-82
2022/07/15 05:22:49;;;;;;;2.78;1.75;;;26.40;70.90;;;;;;5014350;28;20018;-84
2022/07/15 05:25:14;;;;;;;2.85;1.63;;;26.40;70.70;;;;;;5026007;28;20034;-84
2022/07/15 05:27:40;;;;;;;2.33;1.35;;;26.40;70.70;;;;;;5023066;28;20120;-84
2022/07/15 05:30:08;;;;;;;2.20;1.75;;;26.40;70.60;;;;;;5028918;28;20060;-81
2022/07/15 05:32:33;;;;;;;3.05;2.10;;;26.40;70.50;;;;;;5025344;28;20036;-79
2022/07/15 05:34:59;;;;;;;2.22;1.92;;;26.40;70.60;;;;;;5019048;28;20410;-80
2022/07/15 05:37:25;;;;;;;4.22;2.03;;;26.40;70.60;;;;;;5029042;28;20083;-80
2022/07/15 05:39:53;;;;;;;4.75;2.40;;;26.40;70.50;;;;;;5027464;28;20109;-80
2022/07/15 05:42:23;;;;;;;4.60;2.00;;;26.50;70.30;;;;;;5023509;28;20026;-79
2022/07/15 05:44:48;;;;;;;5.73;3.30;;;26.50;70.20;;;;;;5032695;28;20181;-79
2022/07/15 05:47:14;;;;;;;2.88;2.20;;;26.50;70.50;;;;;;5045408;28;20120;-80
2022/07/15 05:49:41;;;;;;;2.03;1.48;;;26.50;70.30;;;;;;5044450;28;20148;-80
2022/07/15 05:52:07;;;;;;;4.47;2.00;;;26.50;70.40;;;;;;5048045;28;20041;-82
2022/07/15 05:54:33;;;;;;;5.97;2.35;;;26.50;70.60;;;;;;5047382;28;20052;-85
2022/07/15 05:56:59;;;;;;;3.13;1.80;;;26.60;70.70;;;;;;5044532;28;20064;-84
2022/07/15 05:59:24;;;;;;;4.78;2.30;;;26.60;70.80;;;;;;5046100;28;20044;-83
2022/07/15 06:01:50;;;;;;;3.58;1.70;;;26.70;70.90;;;;;;5048965;28;20063;-83
2022/07/15 06:04:16;;;;;;;4.15;2.15;;;26.70;70.80;;;;;;5028953;28;20473;-83
2022/07/15 06:06:42;;;;;;;5.45;1.92;;;26.70;70.90;;;;;;5047020;28;20032;-85
2022/07/15 06:09:09;;;;;;;3.30;2.30;;;26.70;70.70;;;;;;5046038;28;20029;-89
2022/07/15 06:11:34;;;;;;;3.25;2.42;;;26.80;71.50;;;;;;5047202;28;20036;-82
2022/07/15 06:14:00;;;;;;;4.15;2.50;;;26.70;70.90;;;;;;5046638;28;20029;-79
2022/07/15 06:16:26;;;;;;;4.22;2.88;;;26.60;71.20;;;;;;5046184;28;20075;-80
2022/07/15 06:18:51;;;;;;;5.60;2.58;;;26.40;71.80;;;;;;5042142;28;20036;-81
2022/07/15 06:21:17;;;;;;;4.63;2.70;;;26.40;73.40;;;;;;5045141;28;20074;-83
2022/07/15 06:23:43;;;;;;;4.32;1.83;;;26.30;72.80;;;;;;5042599;28;20017;-83
2022/07/15 06:26:09;;;;;;;4.22;2.55;;;26.30;72.20;;;;;;5038776;28;20068;-82
2022/07/15 06:28:35;;;;;;;4.45;1.80;;;26.40;73.20;;;;;;5053725;28;20037;-83
2022/07/15 06:31:01;;;;;;;2.85;1.80;;;26.40;72.30;;;;;;5054483;28;20030;-83
2022/07/15 06:33:27;;;;;;;2.28;1.48;;;26.50;72.30;;;;;;5057524;28;20066;-83
2022/07/15 06:35:54;;;;;;;3.50;1.83;;;26.60;72.20;;;;;;5042432;28;20018;-83
2022/07/15 06:38:20;;;;;;;4.82;2.47;;;26.70;72.30;;;;;;5034727;28;20174;-83
2022/07/15 06:40:46;;;;;;;6.55;2.78;;;26.80;72.90;;;;;;5054306;28;20036;-82
2022/07/15 06:43:11;;;;;;;3.65;2.20;;;26.70;73.10;;;;;;5064639;28;20037;-83
2022/07/15 06:45:37;;;;;;;3.97;1.60;;;26.70;73.30;;;;;;5056643;28;20146;-83
2022/07/15 06:48:04;;;;;;;4.07;1.45;;;26.60;72.50;;;;;;5066335;28;20436;-82
2022/07/15 06:50:29;;;;;;;2.50;1.48;;;26.70;72.80;;;;;;5067089;28;20424;-82
2022/07/15 06:52:55;;;;;;;2.35;1.52;;;26.80;72.70;;;;;;5074455;28;20025;-83
2022/07/15 06:55:21;;;;;;;2.08;1.88;;;26.90;73.10;;;;;;5062178;28;20438;-82
2022/07/15 06:57:46;;;;;;;3.47;1.20;;;26.90;73.40;;;;;;5074140;28;20016;-84
2022/07/15 07:00:14;;;;;;;2.25;1.48;;;27.00;72.90;;;;;;5071859;28;20456;-82
2022/07/15 07:02:41;;;;;;;2.28;1.30;;;27.10;72.90;;;;;;5053134;28;20126;-84
2022/07/15 07:05:08;;;;;;;7.20;1.90;;;27.20;72.90;;;;;;5052680;28;20053;-84
2022/07/15 07:07:34;;;;;;;7.05;1.73;;;27.30;73.30;;;;;;5053091;28;20025;-84
2022/07/15 07:10:00;;;;;;;2.33;1.50;;;27.40;73.00;;;;;;5053871;28;20033;-84
2022/07/15 07:12:28;;;;;;;2.35;1.58;;;27.40;73.20;;;;;;5024742;28;20044;-83
2022/07/15 07:14:54;;;;;;;2.15;1.40;;;27.50;73.20;;;;;;5019448;28;20029;-83
2022/07/15 07:17:20;;;;;;;1.95;1.42;;;27.50;73.20;;;;;;5016274;28;20390;-83
2022/07/15 07:19:46;;;;;;;1.85;1.15;;;27.60;73.10;;;;;;5044702;28;20354;-84
2022/07/15 07:22:12;;;;;;;3.65;1.20;;;27.60;73.20;;;;;;5052990;28;20021;-84
2022/07/15 07:24:38;;;;;;;1.55;1.40;;;27.70;74.00;;;;;;5053897;28;20028;-82
2022/07/15 07:27:05;;;;;;;2.67;1.10;;;27.80;74.10;;;;;;5054056;28;20108;-83
2022/07/15 07:29:30;;;;;;;0.65;0.60;;;27.80;73.90;;;;;;5053913;28;20036;-84
2022/07/15 07:31:56;;;;;;;1.65;1.17;;;27.90;74.10;;;;;;5046796;28;20033;-83
2022/07/15 07:34:22;;;;;;;1.10;1.00;;;27.90;74.10;;;;;;5034080;28;20028;-83
2022/07/15 07:36:48;;;;;;;2.55;1.08;;;28.00;74.30;;;;;;5033394;28;20014;-84
2022/07/15 07:39:14;;;;;;;1.48;0.80;;;28.00;75.10;;;;;;5042787;28;20024;-84
2022/07/15 07:41:40;;;;;;;1.30;1.10;;;28.10;75.00;;;;;;5064650;28;20485;-85
2022/07/15 07:44:07;;;;;;;1.25;0.82;;;28.10;75.30;;;;;;5052214;28;20060;-85
2022/07/15 07:46:33;;;;;;;2.28;1.27;;;28.20;75.50;;;;;;5053274;28;20024;-84
2022/07/15 07:48:59;;;;;;;1.35;1.20;;;28.20;75.70;;;;;;5052572;28;20033;-86
2022/07/15 07:51:25;;;;;;;1.52;1.30;;;28.30;76.10;;;;;;5051054;28;20029;-84
2022/07/15 07:53:51;;;;;;;1.60;1.50;;;28.40;76.30;;;;;;5035793;28;20036;-84
2022/07/15 07:56:17;;;;;;;5.43;2.42;;;28.40;76.50;;;;;;5053455;28;20051;-83
2022/07/15 07:58:42;;;;;;;2.65;2.00;;;28.50;75.90;;;;;;5035694;28;20033;-83
2022/07/15 08:01:08;;;;;;;4.93;1.73;;;28.60;75.40;;;;;;5035692;28;20033;-83
2022/07/15 08:03:34;;;;;;;4.95;1.48;;;28.60;75.40;;;;;;5034476;28;20086;-83
2022/07/15 08:06:00;;;;;;;5.80;1.65;;;28.70;75.40;;;;;;5053099;28;20025;-83
2022/07/15 08:08:26;;;;;;;3.10;1.10;;;28.80;75.20;;;;;;5053334;28;20032;-84
2022/07/15 08:10:56;;;;;;;1.40;1.25;;;28.80;74.50;;;;;;5035195;28;20083;-84
2022/07/15 08:13:24;;;;;;;1.33;1.20;;;28.80;73.80;;;;;;5034303;28;20393;-83
2022/07/15 08:15:51;;;;;;;2.50;1.13;;;28.80;73.10;;;;;;5053233;28;20046;-83
2022/07/15 08:18:17;;;;;;;2.05;1.40;;;28.90;73.20;;;;;;5053251;28;20032;-83
2022/07/15 08:20:43;;;;;;;2.67;1.63;;;29.00;73.00;;;;;;5054572;28;20022;-83
2022/07/15 08:23:09;;;;;;;1.33;1.10;;;29.10;72.80;;;;;;5048698;28;20025;-82
2022/07/15 08:25:36;;;;;;;3.70;1.50;;;29.10;72.70;;;;;;5052591;28;20021;-82
2022/07/15 08:28:04;;;;;;;1.73;1.17;;;29.20;72.40;;;;;;5034802;28;20207;-82
2022/07/15 08:30:32;;;;;;;1.38;1.13;;;29.30;72.20;;;;;;5042710;28;20106;-83
2022/07/15 08:32:58;;;;;;;1.10;0.90;;;29.30;71.70;;;;;;5051774;28;20025;-85
2022/07/15 08:35:25;;;;;;;1.70;1.40;;;29.30;71.10;;;;;;5053057;28;20027;-85
2022/07/15 08:37:53;;;;;;;4.15;1.00;;;29.40;70.80;;;;;;5030982;28;20450;-84
2022/07/15 08:40:20;;;;;;;3.20;0.98;;;29.40;70.70;;;;;;5032970;28;20025;-84
2022/07/15 08:42:46;;;;;;;2.47;1.15;;;29.50;70.70;;;;;;5032777;28;20456;-84
2022/07/15 08:45:13;;;;;;;4.00;1.30;;;29.50;70.40;;;;;;5029497;28;20469;-84
2022/07/15 08:47:42;;;;;;;3.40;1.42;;;29.60;70.40;;;;;;5035089;28;20025;-84
2022/07/15 08:50:18;;;;;;;1.83;1.10;;;29.70;70.30;;;;;;5052235;28;20494;-83
2022/07/15 08:52:45;;;;;;;1.88;1.15;;;29.70;70.10;;;;;;5035218;28;20060;-84
2022/07/15 08:55:12;;;;;;;1.42;1.10;;;29.80;70.00;;;;;;5053067;28;20021;-83
2022/07/15 08:57:38;;;;;;;2.47;1.15;;;29.80;69.50;;;;;;5057940;28;20043;-84
2022/07/15 09:00:10;;;;;;;1.40;1.00;;;29.90;69.20;;;;;;5057671;28;20480;-83
2022/07/15 09:02:37;;;;;;;2.45;1.20;;;29.90;68.90;;;;;;5071314;28;20029;-83
2022/07/15 09:05:27;;;;;;;1.80;1.13;;;29.90;68.40;;;;;;5056643;28;20055;-82
2022/07/15 09:08:16;;;;;;;1.77;1.27;;;30.00;68.70;;;;;;5055562;28;20029;-83
2022/07/15 09:10:46;;;;;;;2.23;1.47;;;30.10;68.40;;;;;;5056514;28;20037;-84
2022/07/15 09:13:22;;;;;;;4.78;1.60;;;30.10;68.10;;;;;;5056604;28;20270;-83
2022/07/15 09:15:49;;;;;;;2.00;1.20;;;30.20;67.70;;;;;;5071699;28;20028;-83
2022/07/15 09:18:22;;;;;;;4.60;1.73;;;30.30;67.80;;;;;;5073214;28;20037;-83
2022/07/15 09:20:48;;;;;;;8.80;2.15;;;30.30;68.10;;;;;;5050311;28;20033;-85
2022/07/15 09:23:20;;;;;;;5.60;2.20;;;30.40;68.00;;;;;;5054664;28;20160;-82
2022/07/15 09:25:49;;;;;;;2.38;1.20;;;30.50;68.00;;;;;;5056885;28;20377;-83
2022/07/15 09:28:15;;;;;;;2.42;1.60;;;30.60;67.80;;;;;;5036467;28;20033;-84
2022/07/15 09:33:47;;;;;;;1.20;0.90;;;30.70;66.70;;;;;;5053367;28;20040;-84
2022/07/15 09:36:21;;;;;;;4.80;1.00;;;30.80;64.40;;;;;;5052909;28;20021;-84
2022/07/15 09:39:15;;;;;;;2.38;1.00;;;30.80;64.70;;;;;;5055883;28;20087;-82
2022/07/15 09:41:44;;;;;;;1.02;0.80;;;30.80;64.70;;;;;;5050975;28;20045;-84
2022/07/15 09:44:14;;;;;;;2.45;1.08;;;30.90;64.10;;;;;;5052793;28;20485;-82
2022/07/15 09:46:59;;;;;;;1.95;1.02;;;30.90;63.80;;;;;;5036098;28;20029;-82
2022/07/15 09:49:25;;;;;;;1.58;0.70;;;31.00;63.70;;;;;;5053779;28;20051;-83
2022/07/15 09:51:59;;;;;;;0.98;0.70;;;31.10;63.10;;;;;;5060369;28;20457;-82
2022/07/15 09:54:26;;;;;;;5.03;0.90;;;31.20;63.20;;;;;;5055057;28;20036;-82
2022/07/15 09:56:52;;;;;;;1.02;0.80;;;31.30;63.10;;;;;;5052009;28;20033;-82
2022/07/15 09:59:19;;;;;;;1.42;0.90;;;31.40;63.20;;;;;;5054011;28;20029;-82
2022/07/15 10:01:47;;;;;;;2.45;1.00;;;31.40;63.20;;;;;;5053808;28;20029;-85
2022/07/15 10:04:15;;;;;;;0.73;0.60;;;31.50;62.80;;;;;;5053314;28;20029;-84
2022/07/15 10:06:42;;;;;;;2.42;0.90;;;31.50;62.80;;;;;;5054331;28;20039;-82
2022/07/15 10:09:09;;;;;;;2.20;0.98;;;31.50;62.80;;;;;;5049533;28;20087;-82
2022/07/15 10:11:41;;;;;;;1.38;0.73;;;31.70;62.90;;;;;;5036353;28;20029;-83
2022/07/15 10:14:33;;;;;;;1.23;0.88;;;31.80;62.80;;;;;;5035752;28;20429;-84
2022/07/15 10:16:58;;;;;;;2.72;1.30;;;31.90;61.10;;;;;;5054009;28;20442;-83
2022/07/15 10:20:04;;;;;;;1.20;0.73;;;31.90;61.20;;;;;;5051811;28;20060;-82
2022/07/15 10:22:54;;;;;;;0.77;0.70;;;32.00;58.00;;;;;;5035830;28;20804;-82
2022/07/15 10:25:26;;;;;;;0.95;0.77;;;32.00;59.50;;;;;;5050910;28;20021;-82
2022/07/15 10:28:02;;;;;;;1.33;0.75;;;32.10;58.70;;;;;;5052026;28;20477;-83
2022/07/15 10:30:28;;;;;;;2.47;0.50;;;32.20;58.60;;;;;;5053915;28;20067;-83
2022/07/15 10:33:07;;;;;;;2.22;0.68;;;32.30;57.90;;;;;;5052118;28;20060;-83
2022/07/15 10:35:43;;;;;;;2.38;0.70;;;32.30;55.30;;;;;;5059959;28;20032;-82
2022/07/15 10:38:31;;;;;;;0.88;0.65;;;32.40;54.40;;;;;;5061595;28;20557;-81
2022/07/15 10:41:12;;;;;;;2.00;0.95;;;32.50;53.90;;;;;;5060051;28;20057;-82
2022/07/15 10:44:03;;;;;;;1.58;0.70;;;32.60;54.50;;;;;;5061515;28;20021;-83
2022/07/15 10:46:29;;;;;;;0.57;0.45;;;32.70;54.40;;;;;;5058632;28;20037;-83
2022/07/15 10:48:58;;;;;;;1.05;0.70;;;32.80;54.70;;;;;;5063833;28;20037;-83
2022/07/15 10:51:36;;;;;;;1.00;0.70;;;32.90;53.10;;;;;;5067012;28;20108;-83
2022/07/15 10:54:05;;;;;;;0.60;0.45;;;33.00;53.40;;;;;;5065575;28;20082;-83
2022/07/15 10:56:31;;;;;;;;;;;33.10;53.40;;;;;;5059602;28;20473;-83
2022/07/15 10:59:19;;;;;;;1.27;0.60;;;33.20;52.00;;;;;;5068089;28;19909;-83
2022/07/15 11:02:09;;;;;;;0.50;0.40;;;33.40;50.40;;;;;;5065335;28;20053;-82
2022/07/15 11:04:36;;;;;;;1.45;0.80;;;33.40;52.10;;;;;;5054815;28;20025;-83
2022/07/15 11:07:01;;;;;;;0.55;0.55;;;33.50;50.60;;;;;;5073675;28;20047;-82
2022/07/15 11:10:13;;;;;;;0.50;0.40;;;33.60;50.20;;;;;;5074477;28;20508;-82
2022/07/15 11:12:48;;;;;;;0.65;0.47;;;33.70;48.10;;;;;;5074520;28;20132;-84
2022/07/15 11:15:16;;;;;;;0.70;0.57;;;33.80;48.40;;;;;;5051456;28;20568;-81
2022/07/15 11:17:47;;;;;;;1.15;0.70;;;34.00;48.40;;;;;;5042044;28;20036;-81
2022/07/15 11:20:17;;;;;;;0.50;0.40;;;34.10;46.50;;;;;;5054332;28;20052;-83
2022/07/15 11:22:52;;;;;;;0.77;0.57;;;34.20;47.20;;;;;;5053322;28;20013;-83
2022/07/15 11:25:18;;;;;;;0.60;0.50;;;34.30;45.70;;;;;;5053733;28;20103;-82
2022/07/15 11:28:00;;;;;;;1.17;0.50;;;34.40;45.20;;;;;;5050451;28;20116;-83
2022/07/15 11:30:32;;;;;;;1.10;0.40;;;34.60;43.40;;;;;;5051380;28;20052;-82
2022/07/15 11:33:01;;;;;;;1.15;0.57;;;34.70;44.40;;;;;;5052775;28;20480;-83
2022/07/15 11:35:28;;;;;;;2.85;0.95;;;35.00;44.30;;;;;;5044453;28;20052;-83
2022/07/15 11:37:59;;;;;;;3.85;0.60;;;35.30;44.10;;;;;;5047750;28;20021;-83
2022/07/15 11:45:58;;;;;;;2.13;0.70;;;36.50;44.20;;;;;;5051370;28;20891;-83
2022/07/15 11:48:24;;;;;;;0.45;0.45;;;36.80;44.80;;;;;;5050295;28;20104;-83
2022/07/15 11:50:55;;;;;;;1.10;0.60;;;37.20;44.50;;;;;;5049383;28;20063;-85
2022/07/15 11:53:21;;;;;;;2.25;0.82;;;37.50;44.40;;;;;;5032287;28;20095;-82
2022/07/15 11:56:06;;;;;;;2.55;0.80;;;37.70;44.70;;;;;;5032620;28;20021;-83
2022/07/15 11:58:38;;;;;;;1.00;0.60;;;37.90;42.90;;;;;;5049293;28;20154;-83
2022/07/15 12:01:07;;;;;;;2.80;0.77;;;38.00;42.70;;;;;;5034126;28;20041;-82
2022/07/15 12:03:40;;;;;;;1.42;0.60;;;38.20;41.30;;;;;;5055595;28;20114;-82
2022/07/15 12:06:18;;;;;;;0.70;0.52;;;38.30;41.20;;;;;;5049960;28;20029;-82
2022/07/15 12:08:56;;;;;;;0.60;0.40;;;38.30;41.00;;;;;;5030818;28;20025;-83
2022/07/15 12:11:27;;;;;;;2.28;0.50;;;38.40;41.50;;;;;;5034094;28;20044;-83
2022/07/15 12:13:58;;;;;;;1.75;0.50;;;38.60;40.90;;;;;;5044678;28;20065;-82
2022/07/15 12:16:35;;;;;;;0.57;0.40;;;38.70;41.10;;;;;;5067197;28;20183;-82
2022/07/15 12:19:07;;;;;;;0.95;0.57;;;38.80;40.10;;;;;;5049639;28;20072;-83
2022/07/15 12:21:35;;;;;;;0.50;0.50;;;38.90;39.60;;;;;;5050426;28;20025;-83
2022/07/15 12:24:15;;;;;;;1.45;0.75;;;38.90;41.00;;;;;;5049799;28;20045;-84
2022/07/15 12:26:54;;;;;;;0.60;0.50;;;38.90;40.50;;;;;;5050558;28;20358;-84
2022/07/15 12:29:31;;;;;;;0.77;0.50;;;39.00;40.80;;;;;;5049275;28;20057;-82
2022/07/15 12:32:02;;;;;;;1.35;0.77;;;39.10;40.40;;;;;;5051747;28;20036;-83
2022/07/15 12:34:46;;;;;;;0.50;0.50;;;39.10;41.20;;;;;;5053086;28;20090;-83
2022/07/15 12:37:23;;;;;;;0.88;0.60;;;39.00;40.10;;;;;;5055328;28;20033;-82
2022/07/15 12:40:09;;;;;;;2.20;0.77;;;39.10;41.00;;;;;;5036703;28;20060;-82
2022/07/15 12:42:49;;;;;;;1.67;0.73;;;39.10;38.00;;;;;;5051749;28;20048;-82
2022/07/15 12:45:21;;;;;;;1.08;0.65;;;39.20;39.30;;;;;;5046570;28;20047;-83
2022/07/15 12:48:02;;;;;;;0.55;0.55;;;39.30;39.90;;;;;;5040229;28;20029;-84
2022/07/15 12:50:51;;;;;;;1.73;0.68;;;39.40;38.90;;;;;;5043843;28;20354;-87
2022/07/15 12:53:19;;;;;;;0.47;0.43;;;39.60;39.30;;;;;;5032819;28;20461;-86
2022/07/15 12:55:50;;;;;;;2.80;0.70;;;39.50;39.00;;;;;;5035593;28;20040;-86
2022/07/15 12:58:27;;;;;;;2.25;0.70;;;39.60;38.80;;;;;;5036985;28;20038;-83
2022/07/15 13:01:10;;;;;;;1.77;0.88;;;39.60;39.40;;;;;;5036398;28;20041;-84
2022/07/15 13:03:36;;;;;;;0.70;0.70;;;39.60;39.70;;;;;;5027476;28;20037;-84
2022/07/15 13:06:02;;;;;;;2.30;0.73;;;39.40;39.60;;;;;;5017009;28;20065;-84
2022/07/15 13:08:31;;;;;;;1.75;0.70;;;39.30;39.60;;;;;;5016944;28;20036;-86
2022/07/15 13:11:02;;;;;;;0.60;0.60;;;39.50;39.40;;;;;;5022560;28;20040;-85
2022/07/15 13:13:30;;;;;;;1.35;0.70;;;39.50;39.70;;;;;;5035574;28;20076;-84